Time;durP1;ratioP1;P1;durP2;ratioP2;P2;SDS_P1;SDS_P2;PMS_P1;PMS_P2;Temp;Humidity;BMP_temperature;BMP_pressure;BME280_temperature;BME280_humidity;BME280_pressure;Samples;Min_cycle;Max_cycle;Signal;HPM_P1;HPM_P2
2022/03/20 00:02:18;;;;;;;4.60;3.13;;;;;;;;;;4978438;28;20190;-75
2022/03/20 00:04:44;;;;;;;3.83;3.40;;;;;;;;;;4975472;28;20567;-74
2022/03/20 00:07:11;;;;;;;5.10;3.30;;;;;;;;;;4974362;28;20220;-74
2022/03/20 00:09:37;;;;;;;5.50;3.37;;;;;;;;;;4979586;28;20568;-76
2022/03/20 00:12:02;;;;;;;5.27;3.40;;;;;;;;;;4979981;28;20436;-74
2022/03/20 00:14:28;;;;;;;5.73;3.70;;;;;;;;;;4978618;28;21173;-75
2022/03/20 00:16:53;;;;;;;4.57;3.20;;;;;;;;;;4975355;28;20209;-74
2022/03/20 00:19:19;;;;;;;3.90;3.40;;;;;;;;;;4978593;28;20276;-74
2022/03/20 00:21:44;;;;;;;6.73;3.33;;;;;;;;;;4981203;28;20681;-74
2022/03/20 00:24:10;;;;;;;5.80;3.57;;;;;;;;;;4978905;28;20181;-75
2022/03/20 00:26:35;;;;;;;3.93;3.27;;;;;;;;;;4981625;28;20926;-74
2022/03/20 00:29:00;;;;;;;5.03;3.23;;;;;;;;;;4982789;28;20265;-75
2022/03/20 00:31:28;;;;;;;6.73;3.73;;;;;;;;;;4982014;28;20269;-76
2022/03/20 00:33:53;;;;;;;6.90;3.70;;;;;;;;;;4979825;28;20644;-74
2022/03/20 00:36:18;;;;;;;7.63;3.77;;;;;;;;;;4981304;28;20460;-74
2022/03/20 00:38:44;;;;;;;8.00;3.93;;;;;;;;;;4982269;28;20608;-75
2022/03/20 00:41:10;;;;;;;4.20;3.03;;;;;;;;;;4977773;28;20188;-77
2022/03/20 00:43:36;;;;;;;5.70;3.77;;;;;;;;;;4981812;28;20197;-75
2022/03/20 00:46:01;;;;;;;5.77;3.60;;;;;;;;;;4981906;28;20885;-76
2022/03/20 00:48:27;;;;;;;9.80;3.77;;;;;;;;;;4980906;28;20441;-76
2022/03/20 00:50:52;;;;;;;4.00;3.33;;;;;;;;;;4977504;28;20253;-75
2022/03/20 00:53:17;;;;;;;6.60;3.80;;;;;;;;;;4979593;28;20248;-76
2022/03/20 00:55:43;;;;;;;7.10;4.00;;;;;;;;;;4983303;28;20208;-75
2022/03/20 00:58:10;;;;;;;6.93;3.97;;;;;;;;;;4979435;28;20182;-75
2022/03/20 01:00:35;;;;;;;6.75;3.25;;;;;;;;;;4985605;28;20702;-74
2022/03/20 01:03:01;;;;;;;5.53;3.57;;;;;;;;;;4976322;28;20532;-76
2022/03/20 01:05:27;;;;;;;6.10;3.70;;;;;;;;;;4979643;28;20256;-75
2022/03/20 01:07:52;;;;;;;8.50;4.00;;;;;;;;;;4981101;28;20821;-75
2022/03/20 01:10:17;;;;;;;6.90;3.97;;;;;;;;;;4981602;28;20182;-74
2022/03/20 01:12:43;;;;;;;4.23;3.63;;;;;;;;;;4978010;28;20631;-74
2022/03/20 01:15:10;;;;;;;4.00;3.60;;;;;;;;;;4979030;28;20206;-74
2022/03/20 01:17:35;;;;;;;7.30;3.70;;;;;;;;;;4980833;28;20213;-74
2022/03/20 01:20:01;;;;;;;4.60;3.70;;;;;;;;;;4980341;28;20498;-74
2022/03/20 01:22:26;;;;;;;5.90;3.93;;;;;;;;;;4977523;28;20701;-74
2022/03/20 01:24:52;;;;;;;6.20;4.50;;;;;;;;;;4977642;28;20276;-74
2022/03/20 01:27:17;;;;;;;8.73;4.47;;;;;;;;;;4979775;28;20209;-74
2022/03/20 01:29:43;;;;;;;5.77;4.07;;;;;;;;;;4977978;28;20269;-74
2022/03/20 01:32:10;;;;;;;5.70;4.00;;;;;;;;;;4980224;28;20178;-74
2022/03/20 01:34:35;;;;;;;6.50;4.77;;;;;;;;;;4981649;28;20216;-74
2022/03/20 01:37:02;;;;;;;4.63;3.47;;;;;;;;;;5008070;23;20638;-72
2022/03/20 01:39:27;;;;;;;6.03;3.50;;;;;;;;;;4999182;28;20185;-73
2022/03/20 01:41:52;;;;;;;6.80;4.07;;;;;;;;;;5003152;28;20439;-74
2022/03/20 01:44:18;;;;;;;7.07;4.63;;;;;;;;;;5017674;28;20174;-73
2022/03/20 01:46:43;;;;;;;5.83;4.53;;;;;;;;;;5006658;28;21176;-73
2022/03/20 01:49:09;;;;;;;8.20;4.60;;;;;;;;;;5021706;28;20187;-75
2022/03/20 01:54:22;;;;;;;6.63;4.50;;;;;;;;;;5003644;28;20443;-73
2022/03/20 01:56:51;;;;;;;6.03;4.73;;;;;;;;;;5004553;28;20842;-74
2022/03/20 01:59:17;;;;;;;9.03;4.80;;;;;;;;;;5027946;28;20511;-74
2022/03/20 02:01:43;;;;;;;8.10;5.80;;;;;;;;;;5010369;28;20455;-72
2022/03/20 02:04:15;;;;;;;8.07;5.23;;;;;;;;;;5006080;28;20531;-73
2022/03/20 02:06:41;;;;;;;7.50;4.47;;;;;;;;;;5001210;28;20207;-74
2022/03/20 02:09:06;;;;;;;5.97;5.00;;;;;;;;;;5004171;28;20435;-72
2022/03/20 02:11:33;;;;;;;7.10;5.50;;;;;;;;;;5008146;28;20867;-77
2022/03/20 02:13:58;;;;;;;9.40;5.43;;;;;;;;;;5008577;28;20218;-74
2022/03/20 02:16:24;;;;;;;8.00;5.20;;;;;;;;;;5008916;28;21325;-75
2022/03/20 02:18:50;;;;;;;7.00;5.50;;;;;;;;;;5002766;28;20712;-74
2022/03/20 02:21:15;;;;;;;8.20;5.60;;;;;;;;;;5006752;28;20184;-73
2022/03/20 02:23:42;;;;;;;8.13;5.17;;;;;;;;;;4998703;28;20239;-73
2022/03/20 02:26:07;;;;;;;9.60;5.80;;;;;;;;;;5005217;28;20303;-74
2022/03/20 02:28:32;;;;;;;7.80;5.73;;;;;;;;;;4997107;28;20462;-73
2022/03/20 02:30:58;;;;;;;6.87;5.83;;;;;;;;;;5006351;28;20176;-76
2022/03/20 02:33:27;;;;;;;7.80;5.77;;;;;;;;;;5006048;28;20688;-74
2022/03/20 02:35:53;;;;;;;9.57;5.87;;;;;;;;;;5000027;28;20808;-74
2022/03/20 02:38:20;;;;;;;8.93;6.20;;;;;;;;;;5008054;28;20443;-76
2022/03/20 02:40:46;;;;;;;8.37;5.97;;;;;;;;;;5000725;28;20440;-75
2022/03/20 02:43:11;;;;;;;12.80;6.50;;;;;;;;;;4997267;28;20448;-73
2022/03/20 02:45:37;;;;;;;9.20;6.40;;;;;;;;;;5001776;28;20211;-73
2022/03/20 02:48:06;;;;;;;8.27;6.47;;;;;;;;;;5010907;28;20477;-75
2022/03/20 02:50:35;;;;;;;7.57;5.97;;;;;;;;;;5007019;28;20185;-74
2022/03/20 02:53:02;;;;;;;9.23;6.27;;;;;;;;;;5004823;28;20481;-75
2022/03/20 02:55:31;;;;;;;9.80;6.40;;;;;;;;;;5003105;28;20466;-74
2022/03/20 02:57:59;;;;;;;10.80;7.20;;;;;;;;;;5007076;28;20498;-73
2022/03/20 03:00:28;;;;;;;10.90;6.50;;;;;;;;;;5005673;28;20450;-75
2022/03/20 03:02:54;;;;;;;9.93;6.87;;;;;;;;;;5006556;28;21064;-73
2022/03/20 03:05:21;;;;;;;8.30;6.27;;;;;;;;;;5006063;28;20531;-73
2022/03/20 03:13:16;;;;;;;9.80;7.83;;;;;;;;;;5005602;28;20506;-74
2022/03/20 03:15:42;;;;;;;10.17;7.20;;;;;;;;;;5005257;28;20487;-76
2022/03/20 03:18:08;;;;;;;9.50;7.10;;;;;;;;;;5005775;28;20518;-73
2022/03/20 03:20:34;;;;;;;10.97;7.43;;;;;;;;;;5006361;28;20473;-76
2022/03/20 03:23:00;;;;;;;10.13;7.27;;;;;;;;;;5004332;28;20908;-73
2022/03/20 03:25:30;;;;;;;10.63;7.10;;;;;;;;;;5005007;28;20452;-74
2022/03/20 03:27:55;;;;;;;9.37;7.60;;;;;;;;;;5003789;28;20196;-74
2022/03/20 03:30:21;;;;;;;10.43;6.97;;;;;;;;;;5002752;28;20432;-76
2022/03/20 03:32:47;;;;;;;13.37;7.60;;;;;;;;;;5009131;28;20215;-75
2022/03/20 03:37:58;;;;;;;9.40;7.13;;;;;;;;;;5006758;28;20229;-76
2022/03/20 03:40:23;;;;;;;9.87;6.70;;;;;;;;;;5004990;28;20431;-72
2022/03/20 03:42:49;;;;;;;12.27;8.17;;;;;;;;;;5006701;28;20805;-73
2022/03/20 03:45:14;;;;;;;15.00;7.50;;;;;;;;;;5002933;28;20246;-73
2022/03/20 03:47:43;;;;;;;11.00;7.10;;;;;;;;;;5004733;28;20228;-74
2022/03/20 03:50:09;;;;;;;10.23;7.13;;;;;;;;;;5005828;28;20672;-73
2022/03/20 03:52:41;;;;;;;9.23;6.90;;;;;;;;;;5004196;28;20435;-74
2022/03/20 03:55:07;;;;;;;10.30;7.20;;;;;;;;;;5009253;28;20529;-74
2022/03/20 03:57:32;;;;;;;10.50;8.10;;;;;;;;;;5008925;28;20437;-73
2022/03/20 03:59:58;;;;;;;12.10;7.90;;;;;;;;;;5011488;28;20447;-74
2022/03/20 04:02:23;;;;;;;8.07;7.00;;;;;;;;;;5005892;28;20639;-74
2022/03/20 04:04:49;;;;;;;11.47;7.43;;;;;;;;;;5016228;28;20279;-76
2022/03/20 04:07:18;;;;;;;9.50;7.73;;;;;;;;;;5006428;28;20203;-76
2022/03/20 04:09:44;;;;;;;12.13;7.90;;;;;;;;;;5011862;28;20980;-75
2022/03/20 04:12:10;;;;;;;10.83;8.10;;;;;;;;;;5011104;28;20479;-74
2022/03/20 04:14:35;;;;;;;11.33;8.97;;;;;;;;;;5010728;28;20666;-73
2022/03/20 04:17:01;;;;;;;12.90;8.90;;;;;;;;;;5004052;28;20460;-76
2022/03/20 04:19:26;;;;;;;11.70;8.17;;;;;;;;;;5011144;28;20262;-74
2022/03/20 04:21:51;;;;;;;10.17;7.50;;;;;;;;;;5005744;28;20189;-73
2022/03/20 04:24:17;;;;;;;10.23;8.17;;;;;;;;;;5007735;28;20205;-73
2022/03/20 04:26:44;;;;;;;9.80;7.90;;;;;;;;;;5007013;28;20208;-74
2022/03/20 04:29:10;;;;;;;12.57;9.00;;;;;;;;;;5008440;28;20637;-74
2022/03/20 04:31:35;;;;;;;12.60;9.30;;;;;;;;;;5007608;28;20455;-73
2022/03/20 04:34:04;;;;;;;13.33;9.07;;;;;;;;;;5008816;28;20570;-73
2022/03/20 04:36:30;;;;;;;14.00;9.77;;;;;;;;;;5004130;28;20307;-72
2022/03/20 04:38:56;;;;;;;12.03;8.97;;;;;;;;;;5009310;28;20501;-76
2022/03/20 04:41:22;;;;;;;14.17;9.63;;;;;;;;;;5008826;28;20917;-77
2022/03/20 04:43:49;;;;;;;11.07;9.07;;;;;;;;;;5007527;28;20427;-76
2022/03/20 04:46:15;;;;;;;14.50;11.07;;;;;;;;;;5007329;28;20366;-74
2022/03/20 04:59:40;;;;;;;13.83;10.17;;;;;;;;;;5013653;28;20432;-75
2022/03/20 05:02:06;;;;;;;14.00;10.13;;;;;;;;;;5010117;28;20442;-74
2022/03/20 05:04:32;;;;;;;12.80;9.53;;;;;;;;;;5006949;28;20192;-74
2022/03/20 05:06:57;;;;;;;11.80;9.53;;;;;;;;;;5003929;28;20223;-73
2022/03/20 05:14:51;;;;;;;11.67;9.53;;;;;;;;;;5004608;28;20506;-72
2022/03/20 05:17:16;;;;;;;15.10;9.90;;;;;;;;;;5006901;28;20459;-74
2022/03/20 05:19:42;;;;;;;11.60;9.20;;;;;;;;;;5004679;28;20588;-74
2022/03/20 05:22:10;;;;;;;14.20;10.30;;;;;;;;;;5010959;28;20181;-73
2022/03/20 05:24:36;;;;;;;13.47;10.53;;;;;;;;;;5010188;28;20181;-74
2022/03/20 05:27:03;;;;;;;13.93;10.27;;;;;;;;;;5008765;28;20850;-74
2022/03/20 05:29:29;;;;;;;13.97;9.77;;;;;;;;;;5008885;28;20440;-71
2022/03/20 05:31:55;;;;;;;14.00;10.00;;;;;;;;;;5008607;28;20486;-74
2022/03/20 05:34:20;;;;;;;11.47;9.60;;;;;;;;;;5011101;28;20271;-75
2022/03/20 05:36:46;;;;;;;13.97;10.30;;;;;;;;;;5009626;28;20306;-75
2022/03/20 05:39:12;;;;;;;11.70;9.90;;;;;;;;;;5005240;28;20654;-72
2022/03/20 05:41:46;;;;;;;13.30;9.00;;;;;;;;;;5008413;28;20473;-73
2022/03/20 05:44:16;;;;;;;12.90;10.47;;;;;;;;;;5006877;28;20181;-73
2022/03/20 05:46:42;;;;;;;14.30;10.20;;;;;;;;;;5003841;28;20455;-75
2022/03/20 05:49:07;;;;;;;14.80;10.90;;;;;;;;;;5010967;28;20430;-74
2022/03/20 05:51:34;;;;;;;12.00;9.57;;;;;;;;;;5023315;28;20428;-74
2022/03/20 05:53:59;;;;;;;11.63;10.20;;;;;;;;;;5012242;28;20307;-74
2022/03/20 05:59:22;;;;;;;12.53;10.40;;;;;;;;;;4983164;28;20189;-74
2022/03/20 06:01:50;;;;;;;13.27;11.03;;;;;;;;;;5008622;28;20815;-76
2022/03/20 06:04:16;;;;;;;12.80;10.70;;;;;;;;;;4997919;28;20701;-73
2022/03/20 06:06:42;;;;;;;12.37;10.40;;;;;;;;;;5004339;28;20464;-73
2022/03/20 06:09:08;;;;;;;14.17;11.60;;;;;;;;;;5011794;28;20940;-74
2022/03/20 06:11:34;;;;;;;13.33;10.13;;;;;;;;;;5009877;28;20434;-72
2022/03/20 06:14:00;;;;;;;11.43;9.77;;;;;;;;;;5013000;28;20645;-74
2022/03/20 06:16:26;;;;;;;12.50;10.83;;;;;;;;;;5006790;28;20295;-74
2022/03/20 06:18:52;;;;;;;11.87;9.90;;;;;;;;;;5008783;28;20510;-76
2022/03/20 06:21:18;;;;;;;17.60;10.83;;;;;;;;;;5008483;28;20428;-74
2022/03/20 06:23:45;;;;;;;13.73;10.17;;;;;;;;;;5007692;28;20431;-76
2022/03/20 06:26:11;;;;;;;13.70;10.67;;;;;;;;;;4992542;28;20196;-78
2022/03/20 06:28:40;;;;;;;12.10;10.43;;;;;;;;;;4993785;28;20488;-75
2022/03/20 06:31:06;;;;;;;14.40;11.20;;;;;;;;;;5000317;28;20470;-77
2022/03/20 06:33:31;;;;;;;12.60;9.90;;;;;;;;;;4998912;28;20539;-76
2022/03/20 06:35:57;;;;;;;15.90;11.10;;;;;;;;;;4993420;28;20516;-75
2022/03/20 06:38:22;;;;;;;16.30;10.97;;;;;;;;;;4991678;28;20181;-74
2022/03/20 06:40:48;;;;;;;13.03;10.40;;;;;;;;;;4998177;28;20452;-77
2022/03/20 06:43:16;;;;;;;13.77;10.27;;;;;;;;;;5005682;28;20187;-74
2022/03/20 06:45:41;;;;;;;13.40;10.70;;;;;;;;;;5016123;28;20280;-76
2022/03/20 06:48:07;;;;;;;15.10;11.20;;;;;;;;;;5004328;28;20438;-75
2022/03/20 06:50:32;;;;;;;15.47;11.03;;;;;;;;;;5008820;28;20296;-72
2022/03/20 06:53:02;;;;;;;16.30;11.27;;;;;;;;;;5006245;28;20272;-73
2022/03/20 06:55:30;;;;;;;13.70;11.00;;;;;;;;;;5020709;28;20207;-73
2022/03/20 06:57:55;;;;;;;13.77;11.30;;;;;;;;;;5008102;28;20475;-72
2022/03/20 07:00:21;;;;;;;14.20;11.43;;;;;;;;;;5005312;28;20442;-75
2022/03/20 07:02:50;;;;;;;14.63;12.10;;;;;;;;;;4998339;28;20586;-74
2022/03/20 07:05:15;;;;;;;15.20;10.93;;;;;;;;;;4997541;28;20551;-74
2022/03/20 07:07:41;;;;;;;12.63;10.83;;;;;;;;;;5016652;28;20469;-74
2022/03/20 07:10:07;;;;;;;16.03;11.83;;;;;;;;;;4998184;28;20183;-73
2022/03/20 07:12:33;;;;;;;15.43;10.80;;;;;;;;;;4999433;28;20211;-75
2022/03/20 07:15:04;;;;;;;14.43;11.27;;;;;;;;;;4999215;28;20475;-75
2022/03/20 07:17:30;;;;;;;13.97;11.23;;;;;;;;;;4998918;28;20181;-76
2022/03/20 07:19:55;;;;;;;14.67;11.87;;;;;;;;;;5003642;28;20440;-76
2022/03/20 07:30:15;;;;;;;14.40;10.87;;;;;;;;;;4952452;28;20467;-71
2022/03/20 07:32:41;;;;;;;13.77;11.30;;;;;;;;;;4961374;28;20448;-72
2022/03/20 07:35:06;;;;;;;16.27;11.53;;;;;;;;;;4978990;28;20236;-76
2022/03/20 07:37:41;;;;;;;16.10;12.00;;;;;;;;;;4983848;28;21008;-73
2022/03/20 07:40:07;;;;;;;13.77;11.77;;;;;;;;;;4964851;28;20245;-72
2022/03/20 07:42:56;;;;;;;11.33;10.10;;;;;;;;;;4989414;22;20499;-71
2022/03/20 07:45:22;;;;;;;13.70;10.73;;;;;;;;;;5001752;28;20553;-71
2022/03/20 07:47:56;;;;;;;17.00;11.93;;;;;;;;;;4998944;28;20477;-71
2022/03/20 07:50:40;;;;;;;;;;;;;;;;;;;;;
2022/03/20 07:53:06;;;;;;;13.50;10.60;;;;;;;;;;5000691;28;20459;-71
2022/03/20 07:55:31;;;;;;;13.97;10.50;;;;;;;;;;5006425;28;20445;-71
2022/03/20 07:57:57;;;;;;;13.13;10.90;;;;;;;;;;4997753;28;20967;-71
2022/03/20 08:00:28;;;;;;;17.43;11.17;;;;;;;;;;5008417;28;20719;-71
2022/03/20 08:03:00;;;;;;;16.07;11.67;;;;;;;;;;5009048;28;20459;-71
2022/03/20 08:05:27;;;;;;;13.43;11.20;;;;;;;;;;5008834;28;20519;-71
2022/03/20 08:07:52;;;;;;;15.60;11.10;;;;;;;;;;5009345;28;20455;-71
2022/03/20 08:10:17;;;;;;;15.23;11.20;;;;;;;;;;5011463;28;20447;-70
2022/03/20 08:12:49;;;;;;;18.37;11.83;;;;;;;;;;5009626;28;20298;-71
2022/03/20 08:15:16;;;;;;;14.50;11.00;;;;;;;;;;5008028;28;20177;-68
2022/03/20 08:17:48;;;;;;;17.13;11.00;;;;;;;;;;5007849;28;20940;-72
2022/03/20 08:20:17;;;;;;;14.67;11.10;;;;;;;;;;5009731;28;20432;-70
2022/03/20 08:22:42;;;;;;;16.60;12.30;;;;;;;;;;5012058;28;20944;-70
2022/03/20 08:25:10;;;;;;;16.40;12.23;;;;;;;;;;5010875;28;20439;-70
2022/03/20 08:27:49;;;;;;;14.60;10.87;;;;;;;;;;5009918;28;20209;-70
2022/03/20 08:30:15;;;;;;;15.17;11.90;;;;;;;;;;5008949;28;20435;-70
2022/03/20 08:32:41;;;;;;;16.43;12.10;;;;;;;;;;5009407;28;20669;-70
2022/03/20 08:38:04;;;;;;;14.40;10.80;;;;;;;;;;5006580;28;20502;-69
2022/03/20 08:40:38;;;;;;;13.47;11.00;;;;;;;;;;5011649;28;20511;-70
2022/03/20 08:43:04;;;;;;;14.50;11.10;;;;;;;;;;5009341;28;20216;-70
2022/03/20 08:45:55;;;;;;;14.57;11.10;;;;;;;;;;5010888;28;20427;-71
2022/03/20 08:48:31;;;;;;;15.50;12.10;;;;;;;;;;5009626;28;21016;-69
2022/03/20 08:50:56;;;;;;;14.57;11.70;;;;;;;;;;5010714;28;20511;-69
2022/03/20 08:53:45;;;;;;;16.10;12.20;;;;;;;;;;5012176;28;20447;-70
2022/03/20 08:56:33;;;;;;;15.10;11.60;;;;;;;;;;4981645;28;20591;-69
2022/03/20 08:58:58;;;;;;;15.20;11.47;;;;;;;;;;5010101;28;20462;-69
2022/03/20 09:01:52;;;;;;;15.70;12.17;;;;;;;;;;5010657;28;20963;-69
2022/03/20 09:04:21;;;;;;;14.70;11.70;;;;;;;;;;5004484;28;21092;-68
2022/03/20 09:06:47;;;;;;;15.90;11.50;;;;;;;;;;5022718;28;20514;-69
2022/03/20 09:09:14;;;;;;;16.00;12.47;;;;;;;;;;5008563;28;20463;-69
2022/03/20 09:11:41;;;;;;;16.23;12.17;;;;;;;;;;5023897;28;20889;-70
2022/03/20 09:14:06;;;;;;;15.40;12.93;;;;;;;;;;5008502;28;20443;-69
2022/03/20 09:19:17;;;;;;;14.90;11.90;;;;;;;;;;5009921;28;20615;-70
2022/03/20 09:21:46;;;;;;;16.00;12.77;;;;;;;;;;5008488;28;20583;-70
2022/03/20 09:27:23;;;;;;;17.33;12.93;;;;;;;;;;5002361;28;20458;-70
2022/03/20 09:29:49;;;;;;;15.10;12.10;;;;;;;;;;5005321;28;20436;-70
2022/03/20 09:32:44;;;;;;;16.00;13.67;;;;;;;;;;5006260;28;20259;-70
2022/03/20 09:35:09;;;;;;;18.13;14.53;;;;;;;;;;5000437;28;20955;-70
2022/03/20 09:37:48;;;;;;;18.03;13.13;;;;;;;;;;5003015;28;20436;-70
2022/03/20 09:40:13;;;;;;;17.30;13.50;;;;;;;;;;5008836;28;20260;-69
2022/03/20 09:42:46;;;;;;;16.53;11.87;;;;;;;;;;5008900;28;20567;-70
2022/03/20 09:45:32;;;;;;;18.80;14.23;;;;;;;;;;5009145;28;20684;-70
2022/03/20 09:47:57;;;;;;;19.73;13.77;;;;;;;;;;5008816;28;20959;-70
2022/03/20 09:50:36;;;;;;;17.50;13.70;;;;;;;;;;5008582;28;20463;-70
2022/03/20 09:53:44;;;;;;;;;;;;;;;;;;;;;
2022/03/20 09:56:12;;;;;;;17.97;13.33;;;;;;;;;;4983606;28;20446;-69
2022/03/20 09:58:37;;;;;;;16.83;13.30;;;;;;;;;;5001607;28;20439;-69
2022/03/20 10:01:02;;;;;;;17.13;13.53;;;;;;;;;;5000438;28;20440;-71
2022/03/20 10:03:29;;;;;;;16.80;12.73;;;;;;;;;;5004798;28;20658;-70
2022/03/20 10:06:04;;;;;;;17.03;13.03;;;;;;;;;;4999686;28;20518;-70
2022/03/20 10:08:53;;;;;;;19.40;14.10;;;;;;;;;;5005604;28;20324;-70
2022/03/20 10:11:18;;;;;;;20.70;13.60;;;;;;;;;;4989150;28;20440;-70
2022/03/20 10:14:02;;;;;;;20.30;15.70;;;;;;;;;;5003634;28;20781;-70
2022/03/20 10:19:22;;;;;;;19.50;15.30;;;;;;;;;;4997591;28;20480;-70
2022/03/20 10:22:22;;;;;;;17.40;14.43;;;;;;;;;;5004037;28;20482;-70
2022/03/20 10:25:04;;;;;;;18.00;14.57;;;;;;;;;;5003755;28;20487;-71
2022/03/20 10:27:29;;;;;;;18.33;14.90;;;;;;;;;;5018761;28;20482;-71
2022/03/20 10:29:57;;;;;;;19.60;14.17;;;;;;;;;;5006528;28;21003;-70
2022/03/20 10:32:23;;;;;;;19.13;14.10;;;;;;;;;;5007803;28;20691;-71
2022/03/20 10:35:07;;;;;;;19.73;14.80;;;;;;;;;;5002350;28;20428;-70
2022/03/20 10:40:45;;;;;;;18.43;14.03;;;;;;;;;;5000793;28;20448;-70
2022/03/20 10:43:21;;;;;;;20.90;14.53;;;;;;;;;;5005952;28;20471;-70
2022/03/20 10:46:02;;;;;;;22.60;15.60;;;;;;;;;;5005609;28;20862;-70
2022/03/20 10:48:28;;;;;;;19.60;15.67;;;;;;;;;;5017974;28;20443;-70
2022/03/20 10:50:53;;;;;;;18.00;14.10;;;;;;;;;;5004461;28;20812;-69
2022/03/20 10:53:18;;;;;;;21.07;14.47;;;;;;;;;;5007730;28;20685;-71
2022/03/20 10:55:44;;;;;;;17.57;14.03;;;;;;;;;;5006361;28;20562;-70
2022/03/20 10:58:19;;;;;;;19.83;14.73;;;;;;;;;;5007855;28;20181;-70
2022/03/20 11:01:07;;;;;;;20.60;14.10;;;;;;;;;;5006248;28;20189;-70
2022/03/20 11:03:35;;;;;;;17.80;14.53;;;;;;;;;;5009981;28;20440;-70
2022/03/20 11:06:22;;;;;;;19.07;15.03;;;;;;;;;;5004597;28;20431;-70
2022/03/20 11:08:47;;;;;;;18.60;14.70;;;;;;;;;;5006601;28;20428;-70
2022/03/20 11:11:13;;;;;;;18.00;13.57;;;;;;;;;;5004769;28;20493;-71
2022/03/20 11:13:40;;;;;;;19.70;15.90;;;;;;;;;;5024127;28;20220;-71
2022/03/20 11:16:06;;;;;;;24.53;14.50;;;;;;;;;;5006828;28;20188;-71
2022/03/20 11:18:35;;;;;;;19.93;15.73;;;;;;;;;;5007941;28;20428;-70
2022/03/20 11:21:02;;;;;;;19.97;15.20;;;;;;;;;;5006421;28;20238;-71
2022/03/20 11:23:36;;;;;;;17.30;14.30;;;;;;;;;;5005334;28;20460;-71
2022/03/20 11:26:10;;;;;;;18.97;13.63;;;;;;;;;;5007403;28;20443;-71
2022/03/20 11:28:38;;;;;;;17.70;14.10;;;;;;;;;;5007701;28;20454;-71
2022/03/20 11:31:11;;;;;;;19.13;14.10;;;;;;;;;;5005993;28;20426;-71
2022/03/20 11:33:36;;;;;;;20.20;14.17;;;;;;;;;;5006504;28;20820;-71
2022/03/20 11:36:02;;;;;;;18.57;13.50;;;;;;;;;;5004414;28;20428;-71
2022/03/20 11:38:27;;;;;;;18.87;14.50;;;;;;;;;;5008080;28;20185;-71
2022/03/20 11:41:12;;;;;;;19.23;14.20;;;;;;;;;;5006543;28;20223;-71
2022/03/20 11:43:39;;;;;;;21.73;14.17;;;;;;;;;;5006614;28;20683;-71
2022/03/20 11:46:15;;;;;;;17.90;14.03;;;;;;;;;;5008559;28;20462;-71
2022/03/20 11:48:42;;;;;;;18.63;14.17;;;;;;;;;;5007891;28;20416;-71
2022/03/20 11:51:35;;;;;;;18.27;14.13;;;;;;;;;;4998947;28;20464;-71
2022/03/20 11:54:04;;;;;;;15.90;13.50;;;;;;;;;;5005604;28;20432;-71
2022/03/20 11:56:39;;;;;;;18.63;12.20;;;;;;;;;;5003082;28;20510;-71
2022/03/20 11:59:24;;;;;;;18.37;13.97;;;;;;;;;;5000879;28;20446;-71
2022/03/20 12:02:01;;;;;;;17.00;13.37;;;;;;;;;;4999667;28;20444;-71
2022/03/20 12:04:33;;;;;;;18.57;13.17;;;;;;;;;;5003258;28;20443;-71
2022/03/20 12:07:13;;;;;;;17.77;14.00;;;;;;;;;;5003781;28;20470;-71
2022/03/20 12:09:50;;;;;;;17.47;14.00;;;;;;;;;;5008014;28;20438;-70
2022/03/20 12:12:21;;;;;;;17.67;13.60;;;;;;;;;;5006146;28;20588;-71
2022/03/20 12:14:53;;;;;;;15.20;12.47;;;;;;;;;;5008216;28;20518;-71
2022/03/20 12:17:19;;;;;;;15.40;11.63;;;;;;;;;;5009689;28;20985;-71
2022/03/20 12:19:49;;;;;;;20.60;13.20;;;;;;;;;;5010147;28;20530;-71
2022/03/20 12:22:20;;;;;;;18.57;14.50;;;;;;;;;;5010913;28;20247;-70
2022/03/20 12:24:52;;;;;;;15.80;12.63;;;;;;;;;;5010614;28;20435;-70
2022/03/20 12:27:24;;;;;;;17.37;13.17;;;;;;;;;;5011661;28;20455;-70
2022/03/20 12:30:04;;;;;;;16.33;13.73;;;;;;;;;;5011009;28;20513;-71
2022/03/20 12:32:48;;;;;;;14.67;12.53;;;;;;;;;;5010263;28;20451;-70
2022/03/20 12:35:36;;;;;;;14.47;12.47;;;;;;;;;;5006884;28;20443;-71
2022/03/20 12:38:04;;;;;;;14.37;11.80;;;;;;;;;;5007989;28;20428;-71
2022/03/20 12:40:31;;;;;;;15.30;12.47;;;;;;;;;;5010429;28;20935;-70
2022/03/20 12:43:13;;;;;;;14.13;11.53;;;;;;;;;;5010704;28;20474;-71
2022/03/20 12:45:46;;;;;;;16.57;11.80;;;;;;;;;;5010337;28;20431;-71
2022/03/20 12:48:32;;;;;;;15.37;12.07;;;;;;;;;;5008859;28;20491;-70
2022/03/20 12:51:25;;;;;;;16.70;13.67;;;;;;;;;;5011605;28;20418;-71
2022/03/20 12:53:52;;;;;;;17.93;13.00;;;;;;;;;;5015476;28;20871;-71
2022/03/20 12:56:37;;;;;;;26.13;14.20;;;;;;;;;;5010472;28;20431;-71
2022/03/20 12:59:09;;;;;;;16.93;12.97;;;;;;;;;;5024705;28;20442;-71
2022/03/20 13:01:51;;;;;;;15.00;12.50;;;;;;;;;;5010978;28;20960;-70
2022/03/20 13:04:43;;;;;;;15.57;12.40;;;;;;;;;;5008274;28;20432;-69
2022/03/20 13:07:22;;;;;;;15.50;13.13;;;;;;;;;;5008466;28;20910;-69
2022/03/20 13:09:56;;;;;;;15.60;12.33;;;;;;;;;;5010491;28;20419;-70
2022/03/20 13:12:21;;;;;;;14.77;11.50;;;;;;;;;;5011054;28;20477;-70
2022/03/20 13:14:48;;;;;;;15.13;12.40;;;;;;;;;;5007139;28;20423;-69
2022/03/20 13:17:23;;;;;;;16.80;13.10;;;;;;;;;;5010304;28;20189;-70
2022/03/20 13:19:55;;;;;;;16.40;12.80;;;;;;;;;;5010868;28;20423;-70
2022/03/20 13:22:20;;;;;;;17.20;12.83;;;;;;;;;;5009566;28;20560;-70
2022/03/20 13:25:16;;;;;;;17.00;12.67;;;;;;;;;;5009398;28;20428;-70
2022/03/20 13:27:43;;;;;;;14.03;12.40;;;;;;;;;;5009843;28;20259;-71
2022/03/20 13:30:08;;;;;;;15.53;12.27;;;;;;;;;;5007460;28;20456;-70
2022/03/20 13:32:34;;;;;;;16.27;10.80;;;;;;;;;;5007858;28;20497;-70
2022/03/20 13:34:59;;;;;;;15.13;11.97;;;;;;;;;;5010016;28;20173;-70
2022/03/20 13:37:25;;;;;;;17.37;13.37;;;;;;;;;;5009012;28;20260;-71
2022/03/20 13:39:54;;;;;;;15.57;12.50;;;;;;;;;;5009659;28;20185;-70
2022/03/20 13:42:20;;;;;;;17.77;12.70;;;;;;;;;;5025041;22;20228;-72
2022/03/20 13:44:47;;;;;;;18.90;12.77;;;;;;;;;;5024282;28;20427;-73
2022/03/20 13:47:12;;;;;;;14.30;11.47;;;;;;;;;;5026020;28;20509;-72
2022/03/20 13:49:38;;;;;;;14.00;11.90;;;;;;;;;;5022502;28;20435;-71
2022/03/20 13:52:03;;;;;;;15.37;11.63;;;;;;;;;;5018775;28;20682;-72
2022/03/20 13:54:29;;;;;;;16.27;12.77;;;;;;;;;;5004862;28;20166;-72
2022/03/20 13:57:06;;;;;;;14.70;12.00;;;;;;;;;;5004705;28;20652;-71
2022/03/20 13:59:33;;;;;;;16.57;13.40;;;;;;;;;;5007064;28;20435;-72
2022/03/20 14:04:51;;;;;;;15.73;13.30;;;;;;;;;;4996164;28;20447;-71
2022/03/20 14:07:20;;;;;;;16.30;13.43;;;;;;;;;;5002867;28;20456;-72
2022/03/20 14:09:46;;;;;;;14.90;12.10;;;;;;;;;;5006304;28;20419;-72
2022/03/20 14:12:28;;;;;;;14.20;12.70;;;;;;;;;;4997518;28;20449;-74
2022/03/20 14:14:58;;;;;;;16.10;12.27;;;;;;;;;;4992603;28;20188;-72
2022/03/20 14:18:07;;;;;;;;;;;;;;;;;;;;;
2022/03/20 14:20:28;;;;;;;17.67;12.67;;;;;;;;;;4991986;28;20424;-71
2022/03/20 14:22:58;;;;;;;14.37;12.40;;;;;;;;;;4994928;28;20462;-71
2022/03/20 14:25:35;;;;;;;14.27;11.73;;;;;;;;;;4996329;28;20186;-72
2022/03/20 14:28:27;;;;;;;15.63;12.10;;;;;;;;;;5006847;28;20507;-71
2022/03/20 14:39:28;;;;;;;13.40;11.53;;;;;;;;;;5004557;28;20810;-72
2022/03/20 14:41:53;;;;;;;14.27;11.17;;;;;;;;;;5004970;28;20479;-70
2022/03/20 14:44:23;;;;;;;15.00;11.53;;;;;;;;;;5003618;28;20468;-72
2022/03/20 14:46:50;;;;;;;12.17;10.13;;;;;;;;;;5003815;28;20244;-72
2022/03/20 14:49:18;;;;;;;14.23;11.87;;;;;;;;;;5004686;28;20811;-72
2022/03/20 14:51:47;;;;;;;16.33;12.63;;;;;;;;;;5003411;28;20864;-72
2022/03/20 14:54:13;;;;;;;78.03;17.20;;;;;;;;;;5002149;28;20478;-72
2022/03/20 14:56:39;;;;;;;18.37;11.80;;;;;;;;;;4994259;28;20495;-72
2022/03/20 14:59:05;;;;;;;14.70;12.20;;;;;;;;;;4987526;28;22025;-71
2022/03/20 15:01:31;;;;;;;15.50;11.90;;;;;;;;;;4990634;28;20426;-73
2022/03/20 15:03:56;;;;;;;13.57;11.30;;;;;;;;;;5000077;28;20810;-73
2022/03/20 15:06:24;;;;;;;15.70;12.03;;;;;;;;;;4994822;28;20204;-73
2022/03/20 15:11:34;;;;;;;15.90;13.47;;;;;;;;;;4992155;28;20483;-70
2022/03/20 15:14:00;;;;;;;14.90;13.00;;;;;;;;;;4992544;28;20484;-71
2022/03/20 15:16:43;;;;;;;15.93;13.20;;;;;;;;;;4993710;28;20191;-71
2022/03/20 15:19:15;;;;;;;15.63;12.17;;;;;;;;;;4994336;28;20192;-72
2022/03/20 15:21:40;;;;;;;16.30;12.70;;;;;;;;;;4995322;28;20452;-73
2022/03/20 15:24:12;;;;;;;14.23;11.70;;;;;;;;;;5003769;28;20917;-73
2022/03/20 15:26:37;;;;;;;13.80;11.73;;;;;;;;;;5000409;28;20203;-73
2022/03/20 15:32:27;;;;;;;16.20;13.00;;;;;;;;;;4995649;28;20205;-72
2022/03/20 15:34:52;;;;;;;14.57;12.20;;;;;;;;;;4994522;28;20856;-72
2022/03/20 15:37:35;;;;;;;17.23;13.10;;;;;;;;;;5002450;28;20436;-72
2022/03/20 15:40:00;;;;;;;14.93;12.30;;;;;;;;;;5002658;28;20188;-73
2022/03/20 15:42:34;;;;;;;13.77;12.03;;;;;;;;;;5003216;28;20539;-72
2022/03/20 15:45:11;;;;;;;17.67;13.40;;;;;;;;;;5003093;28;20238;-72
2022/03/20 15:47:37;;;;;;;14.10;11.87;;;;;;;;;;5001936;28;20994;-72
2022/03/20 15:50:04;;;;;;;14.83;12.33;;;;;;;;;;4998700;28;20437;-72
2022/03/20 15:52:30;;;;;;;15.87;12.63;;;;;;;;;;5006208;28;20251;-72